sensor_id;sensor_type;location;lat;lon;timestamp;temperature;humidity
20045;DHT22;10183;47.808;9.476;2024-01-06T00:01:41;4.20;99.90
20045;DHT22;10183;47.808;9.476;2024-01-06T00:04:27;4.20;99.90
20045;DHT22;10183;47.808;9.476;2024-01-06T00:07:14;4.30;99.90
20045;DHT22;10183;47.808;9.476;2024-01-06T00:10:00;4.30;99.90
20045;DHT22;10183;47.808;9.476;2024-01-06T00:12:46;4.20;99.90
20045;DHT22;10183;47.808;9.476;2024-01-06T00:15:32;4.30;99.90
20045;DHT22;10183;47.808;9.476;2024-01-06T00:18:18;4.30;99.90
20045;DHT22;10183;47.808;9.476;2024-01-06T00:21:04;4.20;99.90
20045;DHT22;10183;47.808;9.476;2024-01-06T00:23:50;4.20;99.90
20045;DHT22;10183;47.808;9.476;2024-01-06T00:26:36;4.30;99.90
20045;DHT22;10183;47.808;9.476;2024-01-06T00:29:22;4.30;99.90
20045;DHT22;10183;47.808;9.476;2024-01-06T00:32:08;4.30;99.90
20045;DHT22;10183;47.808;9.476;2024-01-06T00:34:54;4.30;99.90
20045;DHT22;10183;47.808;9.476;2024-01-06T00:37:40;4.20;99.90
20045;DHT22;10183;47.808;9.476;2024-01-06T00:40:26;4.30;99.90
20045;DHT22;10183;47.808;9.476;2024-01-06T00:43:12;4.20;99.90
20045;DHT22;10183;47.808;9.476;2024-01-06T00:45:58;4.30;99.90
20045;DHT22;10183;47.808;9.476;2024-01-06T00:48:44;4.20;99.90
20045;DHT22;10183;47.808;9.476;2024-01-06T00:51:30;4.20;99.90
20045;DHT22;10183;47.808;9.476;2024-01-06T00:54:16;4.20;99.90
20045;DHT22;10183;47.808;9.476;2024-01-06T00:57:02;4.20;99.90
20045;DHT22;10183;47.808;9.476;2024-01-06T00:59:48;4.20;99.90
20045;DHT22;10183;47.808;9.476;2024-01-06T01:02:34;4.20;99.90
20045;DHT22;10183;47.808;9.476;2024-01-06T01:05:19;4.20;99.90
20045;DHT22;10183;47.808;9.476;2024-01-06T01:08:06;4.10;99.90
20045;DHT22;10183;47.808;9.476;2024-01-06T01:10:52;4.10;99.90
20045;DHT22;10183;47.808;9.476;2024-01-06T01:13:38;4.10;99.90
20045;DHT22;10183;47.808;9.476;2024-01-06T01:16:24;4.00;99.90
20045;DHT22;10183;47.808;9.476;2024-01-06T01:19:10;4.00;99.90
20045;DHT22;10183;47.808;9.476;2024-01-06T01:21:56;4.00;99.90
20045;DHT22;10183;47.808;9.476;2024-01-06T01:24:42;4.00;99.90
20045;DHT22;10183;47.808;9.476;2024-01-06T01:27:28;4.00;99.90
20045;DHT22;10183;47.808;9.476;2024-01-06T01:30:14;4.00;99.90
20045;DHT22;10183;47.808;9.476;2024-01-06T01:33:00;4.00;99.90
20045;DHT22;10183;47.808;9.476;2024-01-06T01:35:46;4.00;99.90
20045;DHT22;10183;47.808;9.476;2024-01-06T01:38:32;4.00;99.90
20045;DHT22;10183;47.808;9.476;2024-01-06T01:41:18;4.00;99.90
20045;DHT22;10183;47.808;9.476;2024-01-06T01:44:04;4.00;99.90
20045;DHT22;10183;47.808;9.476;2024-01-06T01:46:50;4.00;99.90
20045;DHT22;10183;47.808;9.476;2024-01-06T01:49:36;3.90;99.90
20045;DHT22;10183;47.808;9.476;2024-01-06T01:52:23;3.90;99.90
20045;DHT22;10183;47.808;9.476;2024-01-06T01:55:09;3.90;99.90
20045;DHT22;10183;47.808;9.476;2024-01-06T01:57:55;3.80;99.90
20045;DHT22;10183;47.808;9.476;2024-01-06T02:00:41;3.90;99.90
20045;DHT22;10183;47.808;9.476;2024-01-06T02:03:30;3.80;99.90
20045;DHT22;10183;47.808;9.476;2024-01-06T02:06:16;4.00;99.90
20045;DHT22;10183;47.808;9.476;2024-01-06T02:09:02;4.00;99.90
20045;DHT22;10183;47.808;9.476;2024-01-06T02:11:48;3.90;99.90
20045;DHT22;10183;47.808;9.476;2024-01-06T02:14:34;4.00;99.90
20045;DHT22;10183;47.808;9.476;2024-01-06T02:17:20;4.00;99.90
20045;DHT22;10183;47.808;9.476;2024-01-06T02:20:10;3.90;99.90
20045;DHT22;10183;47.808;9.476;2024-01-06T02:22:57;3.90;99.90
20045;DHT22;10183;47.808;9.476;2024-01-06T02:25:45;3.90;99.90
20045;DHT22;10183;47.808;9.476;2024-01-06T02:28:31;4.00;99.90
20045;DHT22;10183;47.808;9.476;2024-01-06T02:31:17;4.00;99.90
20045;DHT22;10183;47.808;9.476;2024-01-06T02:34:03;3.90;99.90
20045;DHT22;10183;47.808;9.476;2024-01-06T02:36:49;3.90;99.90
20045;DHT22;10183;47.808;9.476;2024-01-06T02:39:35;3.90;99.90
20045;DHT22;10183;47.808;9.476;2024-01-06T02:42:21;3.90;99.90
20045;DHT22;10183;47.808;9.476;2024-01-06T02:45:08;3.90;99.90
20045;DHT22;10183;47.808;9.476;2024-01-06T02:47:55;3.90;99.90
20045;DHT22;10183;47.808;9.476;2024-01-06T02:50:41;3.90;99.90
20045;DHT22;10183;47.808;9.476;2024-01-06T02:53:27;3.90;99.90
20045;DHT22;10183;47.808;9.476;2024-01-06T02:56:13;3.80;99.90
20045;DHT22;10183;47.808;9.476;2024-01-06T02:58:59;3.80;99.90
20045;DHT22;10183;47.808;9.476;2024-01-06T03:01:45;3.80;99.90
20045;DHT22;10183;47.808;9.476;2024-01-06T03:04:31;3.70;99.90
20045;DHT22;10183;47.808;9.476;2024-01-06T03:07:17;3.70;99.90
20045;DHT22;10183;47.808;9.476;2024-01-06T03:10:03;3.70;99.90
20045;DHT22;10183;47.808;9.476;2024-01-06T03:12:49;3.70;99.90
20045;DHT22;10183;47.808;9.476;2024-01-06T03:15:35;3.70;99.90
20045;DHT22;10183;47.808;9.476;2024-01-06T03:18:21;3.70;99.90
20045;DHT22;10183;47.808;9.476;2024-01-06T03:21:20;3.70;99.90
20045;DHT22;10183;47.808;9.476;2024-01-06T03:24:07;3.70;99.90
20045;DHT22;10183;47.808;9.476;2024-01-06T03:26:53;3.80;99.90
20045;DHT22;10183;47.808;9.476;2024-01-06T03:29:39;3.70;99.90
20045;DHT22;10183;47.808;9.476;2024-01-06T03:32:24;3.60;99.90
20045;DHT22;10183;47.808;9.476;2024-01-06T03:35:10;3.70;99.90
20045;DHT22;10183;47.808;9.476;2024-01-06T03:37:56;3.80;99.90
20045;DHT22;10183;47.808;9.476;2024-01-06T03:40:42;3.90;99.90
20045;DHT22;10183;47.808;9.476;2024-01-06T03:43:28;3.80;99.90
20045;DHT22;10183;47.808;9.476;2024-01-06T03:46:14;3.80;99.90
20045;DHT22;10183;47.808;9.476;2024-01-06T03:49:00;3.70;99.90
20045;DHT22;10183;47.808;9.476;2024-01-06T03:51:46;3.70;99.90
20045;DHT22;10183;47.808;9.476;2024-01-06T03:54:32;3.70;99.90
20045;DHT22;10183;47.808;9.476;2024-01-06T03:57:18;3.60;99.90
20045;DHT22;10183;47.808;9.476;2024-01-06T04:00:05;3.40;99.90
20045;DHT22;10183;47.808;9.476;2024-01-06T04:02:51;3.30;99.90
20045;DHT22;10183;47.808;9.476;2024-01-06T04:05:37;3.30;99.90
20045;DHT22;10183;47.808;9.476;2024-01-06T04:08:23;3.30;99.90
20045;DHT22;10183;47.808;9.476;2024-01-06T04:11:09;3.30;99.90
20045;DHT22;10183;47.808;9.476;2024-01-06T04:13:55;3.20;99.90
20045;DHT22;10183;47.808;9.476;2024-01-06T04:16:40;3.10;99.90
20045;DHT22;10183;47.808;9.476;2024-01-06T04:19:26;3.10;99.90
20045;DHT22;10183;47.808;9.476;2024-01-06T04:22:12;3.10;99.90
20045;DHT22;10183;47.808;9.476;2024-01-06T04:24:58;3.10;99.90
20045;DHT22;10183;47.808;9.476;2024-01-06T04:27:44;3.10;99.90
20045;DHT22;10183;47.808;9.476;2024-01-06T04:30:32;3.10;99.90
20045;DHT22;10183;47.808;9.476;2024-01-06T04:33:18;3.00;99.90
20045;DHT22;10183;47.808;9.476;2024-01-06T04:36:04;3.10;99.90
20045;DHT22;10183;47.808;9.476;2024-01-06T04:38:50;3.00;99.90
20045;DHT22;10183;47.808;9.476;2024-01-06T04:41:36;3.00;99.90
20045;DHT22;10183;47.808;9.476;2024-01-06T04:44:22;3.00;99.90
20045;DHT22;10183;47.808;9.476;2024-01-06T04:47:08;3.10;99.90
20045;DHT22;10183;47.808;9.476;2024-01-06T04:49:54;3.10;99.90
20045;DHT22;10183;47.808;9.476;2024-01-06T04:52:40;3.10;99.90
20045;DHT22;10183;47.808;9.476;2024-01-06T04:55:26;3.00;99.90
20045;DHT22;10183;47.808;9.476;2024-01-06T04:58:12;3.00;99.90
20045;DHT22;10183;47.808;9.476;2024-01-06T05:00:58;3.10;99.90
20045;DHT22;10183;47.808;9.476;2024-01-06T05:03:44;3.00;99.90
20045;DHT22;10183;47.808;9.476;2024-01-06T05:06:30;3.00;99.90
20045;DHT22;10183;47.808;9.476;2024-01-06T05:09:16;3.00;99.90
20045;DHT22;10183;47.808;9.476;2024-01-06T05:12:02;3.10;99.90
20045;DHT22;10183;47.808;9.476;2024-01-06T05:14:48;3.10;99.90
20045;DHT22;10183;47.808;9.476;2024-01-06T05:17:34;3.10;99.90
20045;DHT22;10183;47.808;9.476;2024-01-06T05:20:20;3.10;99.90
20045;DHT22;10183;47.808;9.476;2024-01-06T05:23:06;3.10;99.90
20045;DHT22;10183;47.808;9.476;2024-01-06T05:25:52;3.20;99.90
20045;DHT22;10183;47.808;9.476;2024-01-06T05:28:39;3.10;99.90
20045;DHT22;10183;47.808;9.476;2024-01-06T05:31:26;3.00;99.90
20045;DHT22;10183;47.808;9.476;2024-01-06T05:34:12;2.90;99.90
20045;DHT22;10183;47.808;9.476;2024-01-06T05:36:58;2.90;99.90
20045;DHT22;10183;47.808;9.476;2024-01-06T05:39:44;2.80;99.90
20045;DHT22;10183;47.808;9.476;2024-01-06T05:42:30;2.70;99.90
20045;DHT22;10183;47.808;9.476;2024-01-06T05:45:16;2.70;99.90
20045;DHT22;10183;47.808;9.476;2024-01-06T05:48:02;2.70;99.90
20045;DHT22;10183;47.808;9.476;2024-01-06T05:50:48;2.70;99.90
20045;DHT22;10183;47.808;9.476;2024-01-06T05:53:36;2.70;99.90
20045;DHT22;10183;47.808;9.476;2024-01-06T05:56:25;2.70;99.90
20045;DHT22;10183;47.808;9.476;2024-01-06T05:59:12;2.70;99.90
20045;DHT22;10183;47.808;9.476;2024-01-06T06:01:57;2.70;99.90
20045;DHT22;10183;47.808;9.476;2024-01-06T06:04:43;2.80;99.90
20045;DHT22;10183;47.808;9.476;2024-01-06T06:07:29;2.70;99.90
20045;DHT22;10183;47.808;9.476;2024-01-06T06:10:15;2.70;99.90
20045;DHT22;10183;47.808;9.476;2024-01-06T06:13:04;2.70;99.90
20045;DHT22;10183;47.808;9.476;2024-01-06T06:15:50;2.60;99.90
20045;DHT22;10183;47.808;9.476;2024-01-06T06:18:36;2.60;99.90
20045;DHT22;10183;47.808;9.476;2024-01-06T06:21:22;2.60;99.90
20045;DHT22;10183;47.808;9.476;2024-01-06T06:24:08;2.60;99.90
20045;DHT22;10183;47.808;9.476;2024-01-06T06:26:54;2.60;99.90
20045;DHT22;10183;47.808;9.476;2024-01-06T06:29:40;2.60;99.90
20045;DHT22;10183;47.808;9.476;2024-01-06T06:32:26;2.60;99.90
20045;DHT22;10183;47.808;9.476;2024-01-06T06:35:12;2.60;99.90
20045;DHT22;10183;47.808;9.476;2024-01-06T06:37:58;2.60;99.90
20045;DHT22;10183;47.808;9.476;2024-01-06T06:40:44;2.50;99.90
20045;DHT22;10183;47.808;9.476;2024-01-06T06:43:30;2.60;99.90
20045;DHT22;10183;47.808;9.476;2024-01-06T06:46:16;2.50;99.90
20045;DHT22;10183;47.808;9.476;2024-01-06T06:49:02;2.50;99.90
20045;DHT22;10183;47.808;9.476;2024-01-06T06:51:48;2.50;99.90
20045;DHT22;10183;47.808;9.476;2024-01-06T06:54:35;2.50;99.90
20045;DHT22;10183;47.808;9.476;2024-01-06T06:57:22;2.60;99.90
20045;DHT22;10183;47.808;9.476;2024-01-06T07:00:08;2.60;99.90
20045;DHT22;10183;47.808;9.476;2024-01-06T07:02:54;2.60;99.90
20045;DHT22;10183;47.808;9.476;2024-01-06T07:05:40;2.50;99.90
20045;DHT22;10183;47.808;9.476;2024-01-06T07:08:26;2.50;99.90
20045;DHT22;10183;47.808;9.476;2024-01-06T07:11:12;2.60;99.90
20045;DHT22;10183;47.808;9.476;2024-01-06T07:14:00;2.60;99.90
20045;DHT22;10183;47.808;9.476;2024-01-06T07:16:47;2.60;99.90
20045;DHT22;10183;47.808;9.476;2024-01-06T07:19:32;2.50;99.90
20045;DHT22;10183;47.808;9.476;2024-01-06T07:22:18;2.40;99.90
20045;DHT22;10183;47.808;9.476;2024-01-06T07:25:05;2.50;99.90
20045;DHT22;10183;47.808;9.476;2024-01-06T07:27:51;2.50;99.90
20045;DHT22;10183;47.808;9.476;2024-01-06T07:30:37;2.50;99.90
20045;DHT22;10183;47.808;9.476;2024-01-06T07:33:23;2.50;99.90
20045;DHT22;10183;47.808;9.476;2024-01-06T07:36:10;2.40;99.90
20045;DHT22;10183;47.808;9.476;2024-01-06T07:38:56;2.40;99.90
20045;DHT22;10183;47.808;9.476;2024-01-06T07:41:42;2.30;99.90
20045;DHT22;10183;47.808;9.476;2024-01-06T07:44:28;2.40;99.90
20045;DHT22;10183;47.808;9.476;2024-01-06T07:47:14;2.40;99.90
20045;DHT22;10183;47.808;9.476;2024-01-06T07:50:00;2.50;99.90
20045;DHT22;10183;47.808;9.476;2024-01-06T07:52:46;2.50;99.90
20045;DHT22;10183;47.808;9.476;2024-01-06T07:55:32;2.50;99.90
20045;DHT22;10183;47.808;9.476;2024-01-06T07:58:18;2.50;99.90
20045;DHT22;10183;47.808;9.476;2024-01-06T08:01:04;2.50;99.90
20045;DHT22;10183;47.808;9.476;2024-01-06T08:03:50;2.50;99.90
20045;DHT22;10183;47.808;9.476;2024-01-06T08:06:36;2.50;99.90
20045;DHT22;10183;47.808;9.476;2024-01-06T08:09:22;2.40;99.90
20045;DHT22;10183;47.808;9.476;2024-01-06T08:12:09;2.40;99.90
20045;DHT22;10183;47.808;9.476;2024-01-06T08:14:55;2.40;99.90
20045;DHT22;10183;47.808;9.476;2024-01-06T08:17:42;2.50;99.90
20045;DHT22;10183;47.808;9.476;2024-01-06T08:20:28;2.60;99.90
20045;DHT22;10183;47.808;9.476;2024-01-06T08:23:14;2.60;99.90
20045;DHT22;10183;47.808;9.476;2024-01-06T08:26:02;2.60;99.90
20045;DHT22;10183;47.808;9.476;2024-01-06T08:28:48;2.60;99.90
20045;DHT22;10183;47.808;9.476;2024-01-06T08:31:34;2.60;99.90
20045;DHT22;10183;47.808;9.476;2024-01-06T08:34:20;2.70;99.90
20045;DHT22;10183;47.808;9.476;2024-01-06T08:37:06;2.70;99.90
20045;DHT22;10183;47.808;9.476;2024-01-06T08:39:52;2.80;99.90
20045;DHT22;10183;47.808;9.476;2024-01-06T08:42:38;2.90;99.90
20045;DHT22;10183;47.808;9.476;2024-01-06T08:45:24;3.00;99.90
20045;DHT22;10183;47.808;9.476;2024-01-06T08:48:10;3.00;99.90
20045;DHT22;10183;47.808;9.476;2024-01-06T08:50:57;2.90;99.90
20045;DHT22;10183;47.808;9.476;2024-01-06T08:53:43;2.90;99.90
20045;DHT22;10183;47.808;9.476;2024-01-06T08:56:29;2.90;99.90
20045;DHT22;10183;47.808;9.476;2024-01-06T08:59:15;3.00;99.90
20045;DHT22;10183;47.808;9.476;2024-01-06T09:02:01;3.10;99.90
20045;DHT22;10183;47.808;9.476;2024-01-06T09:04:47;3.00;99.90
20045;DHT22;10183;47.808;9.476;2024-01-06T09:07:33;2.90;99.90
20045;DHT22;10183;47.808;9.476;2024-01-06T09:10:19;2.90;99.90
20045;DHT22;10183;47.808;9.476;2024-01-06T09:13:05;3.00;99.90
20045;DHT22;10183;47.808;9.476;2024-01-06T09:15:51;2.90;99.90
20045;DHT22;10183;47.808;9.476;2024-01-06T09:18:37;3.00;99.90
20045;DHT22;10183;47.808;9.476;2024-01-06T09:21:23;3.00;99.90
20045;DHT22;10183;47.808;9.476;2024-01-06T09:24:09;3.00;99.90
20045;DHT22;10183;47.808;9.476;2024-01-06T09:26:55;3.10;99.90
20045;DHT22;10183;47.808;9.476;2024-01-06T09:29:41;3.00;99.90
20045;DHT22;10183;47.808;9.476;2024-01-06T09:32:27;2.90;99.90
20045;DHT22;10183;47.808;9.476;2024-01-06T09:35:13;2.90;99.90
20045;DHT22;10183;47.808;9.476;2024-01-06T09:37:59;2.90;99.90
20045;DHT22;10183;47.808;9.476;2024-01-06T09:40:45;3.00;99.90
20045;DHT22;10183;47.808;9.476;2024-01-06T09:43:31;2.90;99.90
20045;DHT22;10183;47.808;9.476;2024-01-06T09:46:24;3.00;99.90
20045;DHT22;10183;47.808;9.476;2024-01-06T09:49:12;3.00;99.90
20045;DHT22;10183;47.808;9.476;2024-01-06T09:51:59;2.80;99.90
20045;DHT22;10183;47.808;9.476;2024-01-06T09:54:52;2.90;99.90
20045;DHT22;10183;47.808;9.476;2024-01-06T09:57:38;3.00;99.90
20045;DHT22;10183;47.808;9.476;2024-01-06T10:00:24;3.00;99.90
20045;DHT22;10183;47.808;9.476;2024-01-06T10:03:10;3.10;99.90
20045;DHT22;10183;47.808;9.476;2024-01-06T10:05:58;3.20;99.90
20045;DHT22;10183;47.808;9.476;2024-01-06T10:08:49;3.10;99.90
20045;DHT22;10183;47.808;9.476;2024-01-06T10:11:36;3.10;99.90
20045;DHT22;10183;47.808;9.476;2024-01-06T10:14:22;3.20;99.90
20045;DHT22;10183;47.808;9.476;2024-01-06T10:17:08;3.30;99.90
20045;DHT22;10183;47.808;9.476;2024-01-06T10:19:54;3.40;99.90
20045;DHT22;10183;47.808;9.476;2024-01-06T10:22:41;3.20;99.90
20045;DHT22;10183;47.808;9.476;2024-01-06T10:25:28;3.30;99.90
20045;DHT22;10183;47.808;9.476;2024-01-06T10:28:14;3.40;99.90
20045;DHT22;10183;47.808;9.476;2024-01-06T10:31:00;3.50;99.90
20045;DHT22;10183;47.808;9.476;2024-01-06T10:33:47;3.60;99.90
20045;DHT22;10183;47.808;9.476;2024-01-06T10:36:34;3.70;99.90
20045;DHT22;10183;47.808;9.476;2024-01-06T10:39:21;3.60;99.90
20045;DHT22;10183;47.808;9.476;2024-01-06T10:42:07;3.60;99.90
20045;DHT22;10183;47.808;9.476;2024-01-06T10:44:54;3.60;99.90
20045;DHT22;10183;47.808;9.476;2024-01-06T10:47:43;3.60;99.90
20045;DHT22;10183;47.808;9.476;2024-01-06T10:50:30;3.70;99.90
20045;DHT22;10183;47.808;9.476;2024-01-06T10:53:17;3.70;99.90
20045;DHT22;10183;47.808;9.476;2024-01-06T10:56:05;3.50;99.90
20045;DHT22;10183;47.808;9.476;2024-01-06T10:58:53;3.50;99.90
20045;DHT22;10183;47.808;9.476;2024-01-06T11:01:40;3.40;99.90
20045;DHT22;10183;47.808;9.476;2024-01-06T11:04:27;3.40;99.90
20045;DHT22;10183;47.808;9.476;2024-01-06T11:07:15;3.50;99.90
20045;DHT22;10183;47.808;9.476;2024-01-06T11:10:06;3.60;99.90
20045;DHT22;10183;47.808;9.476;2024-01-06T11:13:11;3.60;99.90
20045;DHT22;10183;47.808;9.476;2024-01-06T11:16:02;3.70;99.90
20045;DHT22;10183;47.808;9.476;2024-01-06T11:18:50;3.90;99.90
20045;DHT22;10183;47.808;9.476;2024-01-06T11:21:37;3.80;99.90
20045;DHT22;10183;47.808;9.476;2024-01-06T11:24:24;4.00;99.90
20045;DHT22;10183;47.808;9.476;2024-01-06T11:27:17;4.00;99.90
20045;DHT22;10183;47.808;9.476;2024-01-06T11:30:04;4.00;99.90
20045;DHT22;10183;47.808;9.476;2024-01-06T11:32:55;3.90;99.90
20045;DHT22;10183;47.808;9.476;2024-01-06T11:35:44;3.90;99.90
20045;DHT22;10183;47.808;9.476;2024-01-06T11:38:38;3.90;99.90
20045;DHT22;10183;47.808;9.476;2024-01-06T11:41:50;4.00;99.90
20045;DHT22;10183;47.808;9.476;2024-01-06T11:44:37;4.00;99.90
20045;DHT22;10183;47.808;9.476;2024-01-06T11:47:24;4.00;99.90
20045;DHT22;10183;47.808;9.476;2024-01-06T11:50:10;4.10;99.90
20045;DHT22;10183;47.808;9.476;2024-01-06T11:52:56;4.00;99.90
20045;DHT22;10183;47.808;9.476;2024-01-06T11:55:42;3.80;99.90
20045;DHT22;10183;47.808;9.476;2024-01-06T11:58:28;3.80;99.90
20045;DHT22;10183;47.808;9.476;2024-01-06T12:01:14;3.90;99.90
20045;DHT22;10183;47.808;9.476;2024-01-06T12:04:01;3.80;99.90
20045;DHT22;10183;47.808;9.476;2024-01-06T12:06:48;3.70;99.90
20045;DHT22;10183;47.808;9.476;2024-01-06T12:09:35;3.80;99.90
20045;DHT22;10183;47.808;9.476;2024-01-06T12:12:21;3.70;99.90
20045;DHT22;10183;47.808;9.476;2024-01-06T12:15:08;3.50;99.90
20045;DHT22;10183;47.808;9.476;2024-01-06T12:17:55;3.60;99.90
20045;DHT22;10183;47.808;9.476;2024-01-06T12:20:42;3.80;99.90
20045;DHT22;10183;47.808;9.476;2024-01-06T12:23:28;3.70;99.90
20045;DHT22;10183;47.808;9.476;2024-01-06T12:26:16;3.60;99.90
20045;DHT22;10183;47.808;9.476;2024-01-06T12:29:04;3.60;99.90
20045;DHT22;10183;47.808;9.476;2024-01-06T12:31:50;3.50;99.90
20045;DHT22;10183;47.808;9.476;2024-01-06T12:34:37;3.40;99.90
20045;DHT22;10183;47.808;9.476;2024-01-06T12:37:24;3.30;99.90
20045;DHT22;10183;47.808;9.476;2024-01-06T12:40:12;3.20;99.90
20045;DHT22;10183;47.808;9.476;2024-01-06T12:42:59;3.30;99.90
20045;DHT22;10183;47.808;9.476;2024-01-06T12:45:45;3.30;99.90
20045;DHT22;10183;47.808;9.476;2024-01-06T12:48:31;3.40;99.90
20045;DHT22;10183;47.808;9.476;2024-01-06T12:51:16;3.50;99.90
20045;DHT22;10183;47.808;9.476;2024-01-06T12:54:03;3.60;99.90
20045;DHT22;10183;47.808;9.476;2024-01-06T12:56:49;3.50;99.90
20045;DHT22;10183;47.808;9.476;2024-01-06T12:59:35;3.40;99.90
20045;DHT22;10183;47.808;9.476;2024-01-06T13:02:21;3.50;99.90
20045;DHT22;10183;47.808;9.476;2024-01-06T13:05:08;3.50;99.90
20045;DHT22;10183;47.808;9.476;2024-01-06T13:07:54;3.60;99.90
20045;DHT22;10183;47.808;9.476;2024-01-06T13:10:40;3.50;99.90
20045;DHT22;10183;47.808;9.476;2024-01-06T13:13:26;3.50;99.90
20045;DHT22;10183;47.808;9.476;2024-01-06T13:16:12;3.70;99.90
20045;DHT22;10183;47.808;9.476;2024-01-06T13:18:58;3.50;99.90
20045;DHT22;10183;47.808;9.476;2024-01-06T13:21:44;3.50;99.90
20045;DHT22;10183;47.808;9.476;2024-01-06T13:24:30;3.50;99.90
20045;DHT22;10183;47.808;9.476;2024-01-06T13:27:17;3.50;99.90
20045;DHT22;10183;47.808;9.476;2024-01-06T13:30:04;3.60;99.90
20045;DHT22;10183;47.808;9.476;2024-01-06T13:32:50;3.60;99.90
20045;DHT22;10183;47.808;9.476;2024-01-06T13:35:38;3.50;99.90
20045;DHT22;10183;47.808;9.476;2024-01-06T13:38:24;3.60;99.90
20045;DHT22;10183;47.808;9.476;2024-01-06T13:41:12;3.60;99.90
20045;DHT22;10183;47.808;9.476;2024-01-06T13:43:58;3.70;99.90
20045;DHT22;10183;47.808;9.476;2024-01-06T13:46:44;3.80;99.90
20045;DHT22;10183;47.808;9.476;2024-01-06T13:49:30;3.80;99.90
20045;DHT22;10183;47.808;9.476;2024-01-06T13:52:16;3.70;99.90
20045;DHT22;10183;47.808;9.476;2024-01-06T13:55:02;3.70;99.90
20045;DHT22;10183;47.808;9.476;2024-01-06T13:57:48;3.80;99.90
20045;DHT22;10183;47.808;9.476;2024-01-06T14:00:35;3.70;99.90
20045;DHT22;10183;47.808;9.476;2024-01-06T14:03:21;3.70;99.90
20045;DHT22;10183;47.808;9.476;2024-01-06T14:06:09;3.60;99.90
20045;DHT22;10183;47.808;9.476;2024-01-06T14:08:58;3.50;99.90
20045;DHT22;10183;47.808;9.476;2024-01-06T14:11:44;3.50;99.90
20045;DHT22;10183;47.808;9.476;2024-01-06T14:14:31;3.40;99.90
20045;DHT22;10183;47.808;9.476;2024-01-06T14:17:17;3.40;99.90
20045;DHT22;10183;47.808;9.476;2024-01-06T14:20:04;3.40;99.90
20045;DHT22;10183;47.808;9.476;2024-01-06T14:22:50;3.30;99.90
20045;DHT22;10183;47.808;9.476;2024-01-06T14:25:36;3.30;99.90
20045;DHT22;10183;47.808;9.476;2024-01-06T14:28:22;3.40;99.90
20045;DHT22;10183;47.808;9.476;2024-01-06T14:31:08;3.40;99.90
20045;DHT22;10183;47.808;9.476;2024-01-06T14:33:55;3.40;99.90
20045;DHT22;10183;47.808;9.476;2024-01-06T14:36:41;3.40;99.90
20045;DHT22;10183;47.808;9.476;2024-01-06T14:39:33;3.30;99.90
20045;DHT22;10183;47.808;9.476;2024-01-06T14:42:19;3.30;99.90
20045;DHT22;10183;47.808;9.476;2024-01-06T14:45:05;3.30;99.90
20045;DHT22;10183;47.808;9.476;2024-01-06T14:47:53;3.40;99.90
20045;DHT22;10183;47.808;9.476;2024-01-06T14:50:39;3.30;99.90
20045;DHT22;10183;47.808;9.476;2024-01-06T14:53:25;3.40;99.90
20045;DHT22;10183;47.808;9.476;2024-01-06T14:56:11;3.40;99.90
20045;DHT22;10183;47.808;9.476;2024-01-06T14:58:58;3.40;99.90
20045;DHT22;10183;47.808;9.476;2024-01-06T15:01:44;3.50;99.90
20045;DHT22;10183;47.808;9.476;2024-01-06T15:04:30;3.70;99.90
20045;DHT22;10183;47.808;9.476;2024-01-06T15:07:16;3.80;99.90
20045;DHT22;10183;47.808;9.476;2024-01-06T15:10:02;3.50;99.90
20045;DHT22;10183;47.808;9.476;2024-01-06T15:12:49;3.50;99.90
20045;DHT22;10183;47.808;9.476;2024-01-06T15:15:35;3.40;99.90
20045;DHT22;10183;47.808;9.476;2024-01-06T15:18:21;3.40;99.90
20045;DHT22;10183;47.808;9.476;2024-01-06T15:21:07;3.40;99.90
20045;DHT22;10183;47.808;9.476;2024-01-06T15:23:53;3.30;99.90
20045;DHT22;10183;47.808;9.476;2024-01-06T15:26:42;3.40;99.90
20045;DHT22;10183;47.808;9.476;2024-01-06T15:29:28;3.30;99.90
20045;DHT22;10183;47.808;9.476;2024-01-06T15:32:13;3.40;99.90
20045;DHT22;10183;47.808;9.476;2024-01-06T15:35:00;3.40;99.90
20045;DHT22;10183;47.808;9.476;2024-01-06T15:37:46;3.50;99.90
20045;DHT22;10183;47.808;9.476;2024-01-06T15:40:32;3.50;99.90
20045;DHT22;10183;47.808;9.476;2024-01-06T15:43:18;3.50;99.90
20045;DHT22;10183;47.808;9.476;2024-01-06T15:46:04;3.50;99.90
20045;DHT22;10183;47.808;9.476;2024-01-06T15:48:50;3.50;99.90
20045;DHT22;10183;47.808;9.476;2024-01-06T15:51:36;3.40;99.90
20045;DHT22;10183;47.808;9.476;2024-01-06T15:54:23;3.40;99.90
20045;DHT22;10183;47.808;9.476;2024-01-06T15:57:09;3.40;99.90
20045;DHT22;10183;47.808;9.476;2024-01-06T15:59:56;3.20;99.90
20045;DHT22;10183;47.808;9.476;2024-01-06T16:02:42;3.20;99.90
20045;DHT22;10183;47.808;9.476;2024-01-06T16:05:28;3.20;99.90
20045;DHT22;10183;47.808;9.476;2024-01-06T16:08:14;3.20;99.90
20045;DHT22;10183;47.808;9.476;2024-01-06T16:11:00;3.10;99.90
20045;DHT22;10183;47.808;9.476;2024-01-06T16:13:46;3.00;99.90
20045;DHT22;10183;47.808;9.476;2024-01-06T16:16:32;3.00;99.90
20045;DHT22;10183;47.808;9.476;2024-01-06T16:19:18;3.00;99.90
20045;DHT22;10183;47.808;9.476;2024-01-06T16:22:04;3.10;99.90
20045;DHT22;10183;47.808;9.476;2024-01-06T16:24:51;3.00;99.90
20045;DHT22;10183;47.808;9.476;2024-01-06T16:27:37;2.90;99.90
20045;DHT22;10183;47.808;9.476;2024-01-06T16:30:23;2.90;99.90
20045;DHT22;10183;47.808;9.476;2024-01-06T16:33:09;2.90;99.90
20045;DHT22;10183;47.808;9.476;2024-01-06T16:35:55;3.00;99.90
20045;DHT22;10183;47.808;9.476;2024-01-06T16:38:41;3.00;99.90
20045;DHT22;10183;47.808;9.476;2024-01-06T16:41:27;2.90;99.90
20045;DHT22;10183;47.808;9.476;2024-01-06T16:44:15;2.80;99.90
20045;DHT22;10183;47.808;9.476;2024-01-06T16:47:01;2.70;99.90
20045;DHT22;10183;47.808;9.476;2024-01-06T16:49:48;2.80;99.90
20045;DHT22;10183;47.808;9.476;2024-01-06T16:52:34;2.80;99.90
20045;DHT22;10183;47.808;9.476;2024-01-06T16:55:21;2.80;99.90
20045;DHT22;10183;47.808;9.476;2024-01-06T16:58:07;2.70;99.90
20045;DHT22;10183;47.808;9.476;2024-01-06T17:00:53;2.70;99.90
20045;DHT22;10183;47.808;9.476;2024-01-06T17:03:40;2.70;99.90
20045;DHT22;10183;47.808;9.476;2024-01-06T17:06:26;2.70;99.90
20045;DHT22;10183;47.808;9.476;2024-01-06T17:09:12;2.70;99.90
20045;DHT22;10183;47.808;9.476;2024-01-06T17:11:58;2.70;99.90
20045;DHT22;10183;47.808;9.476;2024-01-06T17:14:44;2.70;99.90
20045;DHT22;10183;47.808;9.476;2024-01-06T17:17:32;2.80;99.90
20045;DHT22;10183;47.808;9.476;2024-01-06T17:20:18;2.80;99.90
20045;DHT22;10183;47.808;9.476;2024-01-06T17:23:05;2.80;99.90
20045;DHT22;10183;47.808;9.476;2024-01-06T17:25:51;2.90;99.90
20045;DHT22;10183;47.808;9.476;2024-01-06T17:28:37;2.80;99.90
20045;DHT22;10183;47.808;9.476;2024-01-06T17:31:24;2.90;99.90
20045;DHT22;10183;47.808;9.476;2024-01-06T17:34:10;3.00;99.90
20045;DHT22;10183;47.808;9.476;2024-01-06T17:36:56;3.00;99.90
20045;DHT22;10183;47.808;9.476;2024-01-06T17:39:42;3.10;99.90
20045;DHT22;10183;47.808;9.476;2024-01-06T17:42:28;3.10;99.90
20045;DHT22;10183;47.808;9.476;2024-01-06T17:45:14;3.10;99.90
20045;DHT22;10183;47.808;9.476;2024-01-06T17:48:02;3.00;99.90